Aérodrome :
LOGIN :

S'inscrire | Disclaimer

   EN    FR    IT 

 










Légende :    VFR   VFR Marginal   IFR   IFR Intensif   IFR Très Intensif
Visi : 
Plafond : 
>= 8 km
>= 3000ft
5 à 8 km
1000 à 3000 ft
1500m à 5 km
500 à 1000 ft
800 à 1500m
200 à 500 ft
< 800m
< 200 ft
Symboles :   Orages  Brouillard  Fortes neiges  Fortes précipitations  Vent > 20 kt
SIGMETs :   Divers  Orages  Givrage  Turbulence  Onde Orograph.  Cendres Volcan.






- Altitude de l'aérodrome : 170 ft
- Code IATA : BGO


ENBR - Bergen , Flesland

DERNIER METAR :
  • 080550Z 18017KT 9999 BKN014 07/05 Q1020 NOSIG RMK WIND 1200FT 19024KT

METARs EXPIRÉS :
  • 080520Z 18018KT 9999 BKN016 07/05 Q1020 NOSIG RMK WIND 1200FT 18024KT
  • 080450Z 18020KT 9999 BKN018 08/05 Q1020 NOSIG RMK WIND 1200FT 18028G40KT
  • 080420Z 18018KT 9999 BKN019 BKN025 08/04 Q1021 NOSIG RMK WIND 1200FT 18026G36KT
  • 080350Z 18016KT 9999 FEW021 07/04 Q1021 RMK WIND 1200FT 18026G38KT
  • 080320Z 18018KT 9999 SCT059 08/04 Q1021 RMK WIND 1200FT 18027G39KT

TAF TAF ENBR
Valide du 08 à 06h jusqu'au 09 à 06h UTC


0806/0906 17022KT 9999 -RA FEW008 BKN014
TEMPO 0806/0813 4000 RADZ BR BKN008
BECMG 0813/0816 34012KT -SHRA FEW015TCU SCT030



MET'MAP, la Météo Aéronautique d'un coup d'oeil ! - Copyright ORBIFLY Décembre 2007 - Disclaimer

ORBIFLY MET'MAP TEAM :

Programmation & Développement : Alexandra Zaïnal
Sur une idée originale de : Baudouin d'Aumeries
Assistance à la programmation : Marc-Olivier Méhu
Soutien technique & logistique : Manuel Goepfert

Contact : metmap@orbifly.com




SOURCES & CREDITS :

   NOAA